Time;durP1;ratioP1;P1;durP2;ratioP2;P2;SDS_P1;SDS_P2;PMS_P1;PMS_P2;Temp;Humidity;BMP_temperature;BMP_pressure;BME280_temperature;BME280_humidity;BME280_pressure;Samples;Min_cycle;Max_cycle;Signal;HPM_P1;HPM_P2
2023/09/22 00:01:21;;;;;;;;;;;;;;;;;;4989770;28;20874;-65
2023/09/22 00:03:47;;;;;;;;;;;;;;;;;;4996731;28;19918;-65
2023/09/22 00:06:13;;;;;;;;;;;;;;;;;;4999255;28;20393;-65
2023/09/22 00:08:39;;;;;;;;;;;;;;;;;;4988081;28;19928;-65
2023/09/22 00:11:04;;;;;;;;;;;;;;;;;;4996813;28;19952;-65
2023/09/22 00:13:29;;;;;;;;;;;;;;;;;;4998608;28;20422;-65
2023/09/22 00:15:54;;;;;;;;;;;;;;;;;;4990093;28;19921;-65
2023/09/22 00:18:20;;;;;;;;;;;;;;;;;;5000163;28;20280;-64
2023/09/22 00:20:46;;;;;;;;;;;;;;;;;;5001600;28;19924;-64
2023/09/22 00:23:14;;;;;;;;;;;;;;;;;;5002257;28;19922;-65
2023/09/22 00:25:42;;;;;;;;;;;;;;;;;;5000164;28;20036;-64
2023/09/22 00:28:09;;;;;;;;;;;;;;;;;;4983194;28;19971;-65
2023/09/22 00:30:37;;;;;;;;;;;;;;;;;;4983749;28;19921;-64
2023/09/22 00:33:02;;;;;;;;;;;;;;;;;;4972702;28;19921;-64
2023/09/22 00:35:28;;;;;;;;;;;;;;;;;;4986667;28;19929;-64
2023/09/22 00:37:53;;;;;;;;;;;;;;;;;;4983669;28;20012;-64
2023/09/22 00:40:19;;;;;;;;;;;;;;;;;;5000669;28;19932;-65
2023/09/22 00:42:46;;;;;;;;;;;;;;;;;;4983508;28;19917;-64
2023/09/22 00:45:13;;;;;;;;;;;;;;;;;;4982126;28;20075;-64
2023/09/22 00:47:38;;;;;;;;;;;;;;;;;;4972447;28;19929;-65
2023/09/22 00:50:03;;;;;;;;;;;;;;;;;;4972385;28;19971;-64
2023/09/22 00:52:29;;;;;;;;;;;;;;;;;;4999637;28;19921;-65
2023/09/22 00:54:57;;;;;;;;;;;;;;;;;;4989468;28;20004;-65
2023/09/22 00:57:23;;;;;;;;;;;;;;;;;;5001878;28;20012;-65
2023/09/22 00:59:48;;;;;;;;;;;;;;;;;;4987881;28;20902;-65
2023/09/22 01:02:13;;;;;;;;;;;;;;;;;;4973482;28;19979;-65
2023/09/22 01:04:39;;;;;;;;;;;;;;;;;;4998805;28;19921;-65
2023/09/22 01:07:04;;;;;;;;;;;;;;;;;;4989113;28;19917;-66
2023/09/22 01:09:32;;;;;;;;;;;;;;;;;;5015235;28;20035;-65
2023/09/22 01:11:57;;;;;;;;;;;;;;;;;;4973873;28;19921;-64
2023/09/22 01:14:22;;;;;;;;;;;;;;;;;;4988324;28;20291;-64
2023/09/22 01:16:50;;;;;;;;;;;;;;;;;;5000324;28;20564;-64
2023/09/22 01:19:17;;;;;;;;;;;;;;;;;;4992396;28;19933;-64
2023/09/22 01:21:42;;;;;;;;;;;;;;;;;;5001682;28;19965;-64
2023/09/22 01:24:08;;;;;;;;;;;;;;;;;;4984518;28;19972;-64
2023/09/22 01:26:33;;;;;;;;;;;;;;;;;;4989094;28;19921;-64
2023/09/22 01:28:59;;;;;;;;;;;;;;;;;;4999459;28;19917;-64
2023/09/22 01:31:24;;;;;;;;;;;;;;;;;;4990007;28;19983;-64
2023/09/22 01:33:49;;;;;;;;;;;;;;;;;;4986378;28;19928;-64
2023/09/22 01:36:15;;;;;;;;;;;;;;;;;;4982216;28;20494;-65
2023/09/22 01:38:41;;;;;;;;;;;;;;;;;;4998965;28;19929;-65
2023/09/22 01:41:11;;;;;;;;;;;;;;;;;;4983542;28;19925;-64
2023/09/22 01:43:37;;;;;;;;;;;;;;;;;;5000416;28;19918;-64
2023/09/22 01:46:03;;;;;;;;;;;;;;;;;;4983907;28;19918;-65
2023/09/22 01:48:28;;;;;;;;;;;;;;;;;;5003878;28;20896;-65
2023/09/22 01:50:54;;;;;;;;;;;;;;;;;;4998156;28;20343;-64
2023/09/22 01:53:19;;;;;;;;;;;;;;;;;;4999966;28;19917;-64
2023/09/22 01:55:46;;;;;;;;;;;;;;;;;;4973009;28;19928;-64
2023/09/22 01:58:12;;;;;;;;;;;;;;;;;;4982537;28;19979;-64
2023/09/22 02:00:37;;;;;;;;;;;;;;;;;;5000038;28;19921;-64
2023/09/22 02:03:03;;;;;;;;;;;;;;;;;;4973679;28;19941;-63
2023/09/22 02:05:29;;;;;;;;;;;;;;;;;;4972299;28;20321;-65
2023/09/22 02:07:55;;;;;;;;;;;;;;;;;;4996581;28;19921;-65
2023/09/22 02:10:21;;;;;;;;;;;;;;;;;;5004456;28;19990;-64
2023/09/22 02:12:46;;;;;;;;;;;;;;;;;;4989866;28;20008;-65
2023/09/22 02:15:12;;;;;;;;;;;;;;;;;;4987528;28;19921;-66
2023/09/22 02:17:37;;;;;;;;;;;;;;;;;;5009238;28;19917;-64
2023/09/22 02:20:24;;;;;;;;;;;;;;;;;;4990344;28;19959;-66
2023/09/22 02:22:49;;;;;;;;;;;;;;;;;;5002642;28;19929;-65
2023/09/22 02:25:17;;;;;;;;;;;;;;;;;;4991273;28;21711;-66
2023/09/22 02:27:42;;;;;;;;;;;;;;;;;;4986470;28;20061;-66
2023/09/22 02:30:10;;;;;;;;;;;;;;;;;;5007326;28;20319;-66
2023/09/22 02:32:39;;;;;;;;;;;;;;;;;;4987537;28;19935;-65
2023/09/22 02:35:04;;;;;;;;;;;;;;;;;;5010589;28;20093;-66
2023/09/22 02:37:35;;;;;;;;;;;;;;;;;;5001949;28;19924;-65
2023/09/22 02:40:00;;;;;;;;;;;;;;;;;;5003843;28;19926;-66
2023/09/22 02:42:26;;;;;;;;;;;;;;;;;;4986746;28;19925;-65
2023/09/22 02:44:55;;;;;;;;;;;;;;;;;;4986056;28;19917;-66
2023/09/22 02:47:23;;;;;;;;;;;;;;;;;;4970810;28;19933;-66
2023/09/22 02:49:51;;;;;;;;;;;;;;;;;;5002135;28;20015;-66
2023/09/22 02:52:19;;;;;;;;;;;;;;;;;;4985777;28;19921;-68
2023/09/22 02:54:44;;;;;;;;;;;;;;;;;;5001518;28;19922;-65
2023/09/22 02:57:09;;;;;;;;;;;;;;;;;;4999653;28;19921;-64
2023/09/22 02:59:35;;;;;;;;;;;;;;;;;;4988826;28;19928;-67
2023/09/22 03:02:00;;;;;;;;;;;;;;;;;;4985776;28;20003;-64
2023/09/22 03:04:26;;;;;;;;;;;;;;;;;;5001527;28;20127;-65
2023/09/22 03:06:52;;;;;;;;;;;;;;;;;;4999420;28;19917;-65
2023/09/22 03:09:20;;;;;;;;;;;;;;;;;;4974793;28;19921;-66
2023/09/22 03:11:48;;;;;;;;;;;;;;;;;;4985228;28;19979;-65
2023/09/22 03:14:14;;;;;;;;;;;;;;;;;;4986314;28;19940;-65
2023/09/22 03:16:41;;;;;;;;;;;;;;;;;;4985752;28;20854;-64
2023/09/22 03:19:07;;;;;;;;;;;;;;;;;;5000374;28;19922;-66
2023/09/22 03:21:35;;;;;;;;;;;;;;;;;;5001819;28;19936;-66
2023/09/22 03:24:00;;;;;;;;;;;;;;;;;;4972187;28;20930;-67
2023/09/22 03:26:25;;;;;;;;;;;;;;;;;;5001858;28;19953;-65
2023/09/22 03:28:51;;;;;;;;;;;;;;;;;;4986280;28;19925;-65
2023/09/22 03:31:22;;;;;;;;;;;;;;;;;;4970756;28;19928;-70
2023/09/22 03:33:47;;;;;;;;;;;;;;;;;;4998598;28;19917;-67
2023/09/22 03:36:12;;;;;;;;;;;;;;;;;;5000296;28;19984;-68
2023/09/22 03:38:38;;;;;;;;;;;;;;;;;;5000854;28;19917;-68
2023/09/22 03:41:03;;;;;;;;;;;;;;;;;;4983434;28;19999;-66
2023/09/22 03:43:29;;;;;;;;;;;;;;;;;;5005547;28;19917;-68
2023/09/22 03:45:57;;;;;;;;;;;;;;;;;;5001091;28;19921;-66
2023/09/22 03:48:25;;;;;;;;;;;;;;;;;;5007757;28;19980;-67
2023/09/22 03:50:56;;;;;;;;;;;;;;;;;;4988924;28;19928;-65
2023/09/22 03:53:22;;;;;;;;;;;;;;;;;;5000178;28;19978;-67
2023/09/22 03:55:48;;;;;;;;;;;;;;;;;;4970968;28;19924;-66
2023/09/22 03:58:14;;;;;;;;;;;;;;;;;;4987450;28;19949;-65
2023/09/22 04:00:40;;;;;;;;;;;;;;;;;;4986451;28;19933;-67
2023/09/22 04:03:07;;;;;;;;;;;;;;;;;;4982422;28;19971;-68
2023/09/22 04:05:33;;;;;;;;;;;;;;;;;;4979308;28;20918;-66
2023/09/22 04:07:58;;;;;;;;;;;;;;;;;;5000670;28;19921;-66
2023/09/22 04:10:23;;;;;;;;;;;;;;;;;;5000751;28;20068;-67
2023/09/22 04:12:49;;;;;;;;;;;;;;;;;;5000546;28;20011;-65
2023/09/22 04:15:15;;;;;;;;;;;;;;;;;;4985552;28;19930;-65
2023/09/22 04:17:43;;;;;;;;;;;;;;;;;;4988804;28;19974;-66
2023/09/22 04:20:11;;;;;;;;;;;;;;;;;;5000266;28;19936;-66
2023/09/22 04:22:44;;;;;;;;;;;;;;;;;;4990300;28;20291;-66
2023/09/22 04:25:11;;;;;;;;;;;;;;;;;;5015294;28;20024;-66
2023/09/22 04:27:43;;;;;;;;;;;;;;;;;;4989606;28;20371;-66
2023/09/22 04:30:09;;;;;;;;;;;;;;;;;;4983634;28;19921;-66
2023/09/22 04:32:38;;;;;;;;;;;;;;;;;;5001400;28;19921;-67
2023/09/22 04:35:09;;;;;;;;;;;;;;;;;;4986328;28;20107;-67
2023/09/22 04:37:34;;;;;;;;;;;;;;;;;;4988081;28;20344;-67
2023/09/22 04:40:03;;;;;;;;;;;;;;;;;;4986586;28;19999;-66
2023/09/22 04:42:34;;;;;;;;;;;;;;;;;;4968772;28;19983;-64
2023/09/22 04:45:04;;;;;;;;;;;;;;;;;;4982891;28;19967;-66
2023/09/22 04:47:29;;;;;;;;;;;;;;;;;;4985409;28;19924;-65
2023/09/22 04:49:55;;;;;;;;;;;;;;;;;;4989041;28;19921;-66
2023/09/22 04:52:20;;;;;;;;;;;;;;;;;;4986039;28;20368;-67
2023/09/22 04:54:48;;;;;;;;;;;;;;;;;;4983500;28;19960;-68
2023/09/22 05:00:04;;;;;;;;;;;;;;;;;;4987640;28;19928;-66
2023/09/22 05:02:39;;;;;;;;;;;;;;;;;;4991087;28;19921;-65
2023/09/22 05:05:06;;;;;;;;;;;;;;;;;;4984754;28;20614;-67
2023/09/22 05:07:31;;;;;;;;;;;;;;;;;;5006045;28;19956;-67
2023/09/22 05:09:59;;;;;;;;;;;;;;;;;;5006145;28;20613;-67
2023/09/22 05:12:30;;;;;;;;;;;;;;;;;;4988880;28;19917;-67
2023/09/22 05:14:58;;;;;;;;;;;;;;;;;;4984122;28;19917;-67
2023/09/22 05:17:24;;;;;;;;;;;;;;;;;;4973405;28;20436;-67
2023/09/22 05:19:52;;;;;;;;;;;;;;;;;;4982245;28;19955;-66
2023/09/22 05:22:17;;;;;;;;;;;;;;;;;;4983485;28;20000;-67
2023/09/22 05:24:45;;;;;;;;;;;;;;;;;;4985968;28;19928;-67
2023/09/22 05:27:14;;;;;;;;;;;;;;;;;;4969877;28;21268;-65
2023/09/22 05:29:41;;;;;;;;;;;;;;;;;;4981390;28;19939;-66
2023/09/22 05:32:09;;;;;;;;;;;;;;;;;;5000010;28;20276;-67
2023/09/22 05:34:35;;;;;;;;;;;;;;;;;;5003115;28;19921;-67
2023/09/22 05:37:02;;;;;;;;;;;;;;;;;;4982950;28;20937;-67
2023/09/22 05:39:28;;;;;;;;;;;;;;;;;;4988255;28;19921;-67
2023/09/22 05:41:53;;;;;;;;;;;;;;;;;;5006019;28;19936;-67
2023/09/22 05:44:18;;;;;;;;;;;;;;;;;;4989317;28;19929;-67
2023/09/22 05:46:49;;;;;;;;;;;;;;;;;;4988169;28;19963;-67
2023/09/22 05:49:17;;;;;;;;;;;;;;;;;;5005236;28;19961;-67
2023/09/22 05:51:43;;;;;;;;;;;;;;;;;;4973930;28;19937;-72
2023/09/22 05:54:08;;;;;;;;;;;;;;;;;;5000864;28;19921;-67
2023/09/22 05:56:36;;;;;;;;;;;;;;;;;;5006057;28;19937;-67
2023/09/22 05:59:06;;;;;;;;;;;;;;;;;;4982761;28;19968;-67
2023/09/22 06:01:37;;;;;;;;;;;;;;;;;;4983866;28;19948;-67
2023/09/22 06:04:05;;;;;;;;;;;;;;;;;;5000452;28;20399;-67
2023/09/22 06:06:32;;;;;;;;;;;;;;;;;;4983635;28;19921;-67
2023/09/22 06:08:57;;;;;;;;;;;;;;;;;;5000631;28;19921;-66
2023/09/22 06:11:22;;;;;;;;;;;;;;;;;;4999724;28;19922;-66
2023/09/22 06:13:48;;;;;;;;;;;;;;;;;;4987066;28;20628;-67
2023/09/22 06:16:17;;;;;;;;;;;;;;;;;;5004147;28;19921;-67
2023/09/22 06:18:45;;;;;;;;;;;;;;;;;;4984373;28;19937;-67
2023/09/22 06:21:13;;;;;;;;;;;;;;;;;;4988337;28;19925;-67
2023/09/22 06:23:40;;;;;;;;;;;;;;;;;;4997384;28;19922;-67
2023/09/22 06:26:10;;;;;;;;;;;;;;;;;;4983702;28;19925;-67
2023/09/22 06:28:37;;;;;;;;;;;;;;;;;;4996660;28;19926;-68
2023/09/22 06:31:03;;;;;;;;;;;;;;;;;;4987362;28;19938;-66
2023/09/22 06:33:28;;;;;;;;;;;;;;;;;;4999941;28;19921;-69
2023/09/22 06:35:53;;;;;;;;;;;;;;;;;;4984883;28;19918;-68
2023/09/22 06:38:22;;;;;;;;;;;;;;;;;;4986804;28;20033;-68
2023/09/22 06:40:54;;;;;;;;;;;;;;;;;;5006210;28;20044;-68
2023/09/22 06:43:20;;;;;;;;;;;;;;;;;;4970119;28;20047;-68
2023/09/22 06:45:51;;;;;;;;;;;;;;;;;;5000481;28;20422;-68
2023/09/22 06:48:19;;;;;;;;;;;;;;;;;;4986877;28;19925;-67
2023/09/22 06:50:45;;;;;;;;;;;;;;;;;;4982609;28;19929;-67
2023/09/22 06:53:11;;;;;;;;;;;;;;;;;;4987358;28;19921;-68
2023/09/22 06:55:37;;;;;;;;;;;;;;;;;;5002957;28;20438;-67
2023/09/22 06:58:06;;;;;;;;;;;;;;;;;;4984933;28;19929;-68
2023/09/22 07:00:31;;;;;;;;;;;;;;;;;;5004590;28;20000;-68
2023/09/22 07:02:57;;;;;;;;;;;;;;;;;;4991917;28;19930;-68
2023/09/22 07:05:22;;;;;;;;;;;;;;;;;;4989847;28;19924;-67
2023/09/22 07:07:52;;;;;;;;;;;;;;;;;;4989408;28;20372;-67
2023/09/22 07:10:17;;;;;;;;;;;;;;;;;;4991211;28;21772;-67
2023/09/22 07:12:45;;;;;;;;;;;;;;;;;;4991029;28;20008;-66
2023/09/22 07:15:11;;;;;;;;;;;;;;;;;;4992205;28;19928;-67
2023/09/22 07:17:37;;;;;;;;;;;;;;;;;;4992402;28;19964;-67
2023/09/22 07:20:08;;;;;;;;;;;;;;;;;;4988748;28;19917;-67
2023/09/22 07:22:37;;;;;;;;;;;;;;;;;;5008980;28;19948;-67
2023/09/22 07:25:03;;;;;;;;;;;;;;;;;;4985205;28;19919;-64
2023/09/22 07:27:28;;;;;;;;;;;;;;;;;;5002295;28;19929;-65
2023/09/22 07:29:56;;;;;;;;;;;;;;;;;;4987512;28;21796;-68
2023/09/22 07:32:24;;;;;;;;;;;;;;;;;;4988710;28;19971;-66
2023/09/22 07:34:53;;;;;;;;;;;;;;;;;;5001448;28;20257;-65
2023/09/22 07:37:18;;;;;;;;;;;;;;;;;;4991390;28;19928;-66
2023/09/22 07:39:43;;;;;;;;;;;;;;;;;;4985093;28;19929;-66
2023/09/22 07:44:46;;;;;;;;;;;;;;;;;;5025185;23;20651;-66
2023/09/22 07:47:14;;;;;;;;;;;;;;;;;;4967188;28;19995;-64
2023/09/22 07:49:42;;;;;;;;;;;;;;;;;;4954721;28;19924;-66
2023/09/22 07:52:10;;;;;;;;;;;;;;;;;;4975003;28;19918;-66
2023/09/22 07:54:38;;;;;;;;;;;;;;;;;;4953713;28;20281;-66
2023/09/22 07:57:03;;;;;;;;;;;;;;;;;;4973055;28;19917;-65
2023/09/22 07:59:30;;;;;;;;;;;;;;;;;;4950449;28;20038;-65
2023/09/22 08:01:55;;;;;;;;;;;;;;;;;;4966114;28;20020;-65
2023/09/22 08:04:23;;;;;;;;;;;;;;;;;;4972689;28;19944;-65
2023/09/22 08:06:49;;;;;;;;;;;;;;;;;;4952122;28;19937;-64
2023/09/22 08:09:15;;;;;;;;;;;;;;;;;;4949150;28;20161;-65
2023/09/22 08:11:40;;;;;;;;;;;;;;;;;;4968492;28;19917;-64
2023/09/22 08:14:06;;;;;;;;;;;;;;;;;;4955166;28;19921;-63
2023/09/22 08:16:31;;;;;;;;;;;;;;;;;;4969392;28;20344;-64
2023/09/22 08:18:57;;;;;;;;;;;;;;;;;;4986929;28;20293;-64
2023/09/22 08:21:25;;;;;;;;;;;;;;;;;;4983643;28;20441;-64
2023/09/22 08:23:54;;;;;;;;;;;;;;;;;;4966934;28;19921;-63
2023/09/22 08:26:23;;;;;;;;;;;;;;;;;;4970144;28;19971;-64
2023/09/22 08:28:50;;;;;;;;;;;;;;;;;;4975156;28;19967;-63
2023/09/22 08:31:15;;;;;;;;;;;;;;;;;;4977733;28;20357;-63
2023/09/22 08:33:41;;;;;;;;;;;;;;;;;;4968210;28;20008;-64
2023/09/22 08:36:06;;;;;;;;;;;;;;;;;;4967891;28;20270;-64
2023/09/22 08:38:31;;;;;;;;;;;;;;;;;;4948721;28;19922;-63
2023/09/22 08:40:57;;;;;;;;;;;;;;;;;;4976439;28;19933;-63
2023/09/22 08:43:23;;;;;;;;;;;;;;;;;;4942772;28;19922;-63
2023/09/22 08:45:48;;;;;;;;;;;;;;;;;;4951504;28;19926;-63
2023/09/22 08:48:17;;;;;;;;;;;;;;;;;;4952630;28;20480;-63
2023/09/22 08:50:44;;;;;;;;;;;;;;;;;;4947310;28;19929;-64
2023/09/22 08:53:11;;;;;;;;;;;;;;;;;;4915923;28;20297;-64
2023/09/22 08:55:38;;;;;;;;;;;;;;;;;;4933349;28;21963;-64
2023/09/22 08:58:03;;;;;;;;;;;;;;;;;;4952316;28;19926;-64
2023/09/22 09:00:29;;;;;;;;;;;;;;;;;;4952726;28;20365;-64
2023/09/22 09:02:54;;;;;;;;;;;;;;;;;;4934557;28;20436;-64
2023/09/22 09:05:23;;;;;;;;;;;;;;;;;;4955436;28;20016;-64
2023/09/22 09:07:51;;;;;;;;;;;;;;;;;;4953272;28;20020;-64
2023/09/22 09:10:17;;;;;;;;;;;;;;;;;;4953622;28;19933;-65
2023/09/22 09:12:42;;;;;;;;;;;;;;;;;;4953588;28;20092;-64
2023/09/22 09:15:09;;;;;;;;;;;;;;;;;;4951247;28;20464;-65
2023/09/22 09:17:34;;;;;;;;;;;;;;;;;;4948939;28;19918;-64
2023/09/22 09:19:59;;;;;;;;;;;;;;;;;;4951212;28;20021;-63
2023/09/22 09:22:25;;;;;;;;;;;;;;;;;;4950997;28;19922;-64
2023/09/22 09:24:50;;;;;;;;;;;;;;;;;;4924888;28;20413;-64
2023/09/22 09:27:18;;;;;;;;;;;;;;;;;;4946448;28;19921;-64
2023/09/22 09:29:44;;;;;;;;;;;;;;;;;;4949122;28;20786;-63
2023/09/22 09:32:09;;;;;;;;;;;;;;;;;;4933937;28;19929;-64
2023/09/22 09:34:35;;;;;;;;;;;;;;;;;;4950136;28;19922;-64
2023/09/22 09:37:00;;;;;;;;;;;;;;;;;;4931585;28;20244;-63
2023/09/22 09:39:26;;;;;;;;;;;;;;;;;;4951537;28;19977;-63
2023/09/22 09:41:51;;;;;;;;;;;;;;;;;;4932935;28;19926;-63
2023/09/22 09:44:17;;;;;;;;;;;;;;;;;;4960808;28;19930;-63
2023/09/22 09:46:45;;;;;;;;;;;;;;;;;;4945408;28;19929;-64
2023/09/22 09:49:14;;;;;;;;;;;;;;;;;;4952785;28;19922;-63
2023/09/22 09:51:39;;;;;;;;;;;;;;;;;;4965247;28;20114;-63
2023/09/22 09:54:05;;;;;;;;;;;;;;;;;;4964933;28;20281;-63
2023/09/22 09:56:36;;;;;;;;;;;;;;;;;;4950449;28;19944;-64
2023/09/22 09:59:04;;;;;;;;;;;;;;;;;;4965193;28;19929;-63
2023/09/22 10:01:35;;;;;;;;;;;;;;;;;;4966963;28;20348;-64
2023/09/22 10:04:00;;;;;;;;;;;;;;;;;;4969561;28;19922;-64
2023/09/22 10:06:26;;;;;;;;;;;;;;;;;;4949907;28;19988;-64
2023/09/22 10:08:51;;;;;;;;;;;;;;;;;;4965766;28;19954;-62
2023/09/22 10:11:16;;;;;;;;;;;;;;;;;;4948308;28;19921;-64
2023/09/22 10:13:43;;;;;;;;;;;;;;;;;;4967496;28;19918;-63
2023/09/22 10:16:12;;;;;;;;;;;;;;;;;;4947645;28;19949;-63
2023/09/22 10:18:37;;;;;;;;;;;;;;;;;;4949786;28;19921;-63
2023/09/22 10:21:02;;;;;;;;;;;;;;;;;;4928593;28;19922;-63
2023/09/22 10:23:28;;;;;;;;;;;;;;;;;;4948676;28;20016;-63
2023/09/22 10:25:56;;;;;;;;;;;;;;;;;;4949924;28;19928;-62
2023/09/22 10:28:24;;;;;;;;;;;;;;;;;;4963279;28;19922;-62
2023/09/22 10:30:49;;;;;;;;;;;;;;;;;;4952448;28;19930;-62
2023/09/22 10:33:21;;;;;;;;;;;;;;;;;;4967444;28;19928;-62
2023/09/22 10:35:47;;;;;;;;;;;;;;;;;;4969787;28;19957;-63
2023/09/22 10:38:14;;;;;;;;;;;;;;;;;;4936759;28;19922;-63
2023/09/22 10:40:42;;;;;;;;;;;;;;;;;;4971141;28;20456;-61
2023/09/22 10:43:13;;;;;;;;;;;;;;;;;;4969816;28;20634;-62
2023/09/22 10:45:38;;;;;;;;;;;;;;;;;;4952279;28;19949;-62
2023/09/22 10:48:04;;;;;;;;;;;;;;;;;;4950067;28;20269;-61
2023/09/22 10:50:33;;;;;;;;;;;;;;;;;;4952121;28;19922;-63
2023/09/22 10:53:02;;;;;;;;;;;;;;;;;;4950568;28;19926;-63
2023/09/22 10:55:34;;;;;;;;;;;;;;;;;;4959099;28;19922;-63
2023/09/22 10:58:00;;;;;;;;;;;;;;;;;;4949655;28;19921;-64
2023/09/22 11:00:25;;;;;;;;;;;;;;;;;;4932091;28;19929;-64
2023/09/22 11:02:54;;;;;;;;;;;;;;;;;;4952962;28;19925;-62
2023/09/22 11:05:20;;;;;;;;;;;;;;;;;;4947178;28;19928;-61
2023/09/22 11:07:45;;;;;;;;;;;;;;;;;;4950201;28;19921;-62
2023/09/22 11:10:11;;;;;;;;;;;;;;;;;;4956186;28;19918;-65
2023/09/22 11:12:36;;;;;;;;;;;;;;;;;;4948837;28;19983;-62
2023/09/22 11:15:07;;;;;;;;;;;;;;;;;;4945213;28;19918;-63
2023/09/22 11:17:35;;;;;;;;;;;;;;;;;;4964790;28;20033;-65
2023/09/22 11:20:12;;;;;;;;;;;;;;;;;;4945851;28;20099;-64
2023/09/22 11:22:38;;;;;;;;;;;;;;;;;;4935521;28;19933;-63
2023/09/22 11:25:04;;;;;;;;;;;;;;;;;;4963536;28;19921;-63
2023/09/22 11:27:30;;;;;;;;;;;;;;;;;;4959304;28;20289;-63
2023/09/22 11:29:56;;;;;;;;;;;;;;;;;;4959985;28;19921;-62
2023/09/22 11:32:21;;;;;;;;;;;;;;;;;;4950828;28;19924;-64
2023/09/22 11:34:47;;;;;;;;;;;;;;;;;;4949763;28;20344;-63
2023/09/22 11:37:13;;;;;;;;;;;;;;;;;;4957426;28;19918;-62
2023/09/22 11:39:38;;;;;;;;;;;;;;;;;;4965607;28;19922;-63
2023/09/22 11:42:12;;;;;;;;;;;;;;;;;;4967835;28;19926;-63
2023/09/22 11:44:40;;;;;;;;;;;;;;;;;;4955907;28;19988;-63
2023/09/22 11:47:08;;;;;;;;;;;;;;;;;;4949102;28;19926;-63
2023/09/22 11:49:36;;;;;;;;;;;;;;;;;;4949576;28;19917;-63
2023/09/22 11:52:04;;;;;;;;;;;;;;;;;;4967187;28;19917;-62
2023/09/22 11:54:32;;;;;;;;;;;;;;;;;;4949743;28;19925;-62
2023/09/22 11:57:00;;;;;;;;;;;;;;;;;;4950888;28;19924;-61
2023/09/22 11:59:31;;;;;;;;;;;;;;;;;;4963222;28;19976;-62
2023/09/22 12:02:00;;;;;;;;;;;;;;;;;;4973369;28;19926;-62
2023/09/22 12:04:29;;;;;;;;;;;;;;;;;;4967922;28;20404;-62
2023/09/22 12:07:01;;;;;;;;;;;;;;;;;;4968259;28;20280;-63
2023/09/22 12:09:27;;;;;;;;;;;;;;;;;;4949671;28;19918;-62
2023/09/22 12:11:52;;;;;;;;;;;;;;;;;;4951061;28;19917;-62
2023/09/22 12:14:19;;;;;;;;;;;;;;;;;;4962248;28;19983;-62
2023/09/22 12:16:47;;;;;;;;;;;;;;;;;;4958680;28;19976;-61
2023/09/22 12:19:16;;;;;;;;;;;;;;;;;;4940848;28;20122;-62
2023/09/22 12:21:44;;;;;;;;;;;;;;;;;;4948331;28;19961;-61
2023/09/22 12:24:13;;;;;;;;;;;;;;;;;;4965592;28;20399;-62
2023/09/22 12:26:41;;;;;;;;;;;;;;;;;;4951714;28;19921;-61
2023/09/22 12:29:08;;;;;;;;;;;;;;;;;;4964758;28;20445;-62
2023/09/22 12:31:36;;;;;;;;;;;;;;;;;;4946361;28;20021;-62
2023/09/22 12:34:02;;;;;;;;;;;;;;;;;;4966133;28;19940;-62
2023/09/22 12:36:30;;;;;;;;;;;;;;;;;;4949996;28;19932;-62
2023/09/22 12:38:58;;;;;;;;;;;;;;;;;;4953303;28;20180;-62
2023/09/22 12:41:26;;;;;;;;;;;;;;;;;;4938917;28;19933;-62
2023/09/22 12:43:55;;;;;;;;;;;;;;;;;;4952263;28;19925;-62
2023/09/22 12:46:23;;;;;;;;;;;;;;;;;;4937717;28;19922;-62
2023/09/22 12:48:53;;;;;;;;;;;;;;;;;;4964290;28;20001;-62
2023/09/22 12:51:22;;;;;;;;;;;;;;;;;;4946726;28;19922;-61
2023/09/22 12:53:50;;;;;;;;;;;;;;;;;;4949755;28;19944;-62
2023/09/22 12:56:18;;;;;;;;;;;;;;;;;;4965631;28;19952;-62
2023/09/22 12:58:44;;;;;;;;;;;;;;;;;;4949994;28;20028;-61
2023/09/22 13:01:12;;;;;;;;;;;;;;;;;;4967329;28;19981;-62
2023/09/22 13:03:38;;;;;;;;;;;;;;;;;;4948952;28;20009;-61
2023/09/22 13:06:08;;;;;;;;;;;;;;;;;;4947304;28;19922;-62
2023/09/22 13:08:37;;;;;;;;;;;;;;;;;;4950856;28;19918;-61
2023/09/22 13:11:03;;;;;;;;;;;;;;;;;;4965930;28;20297;-61
2023/09/22 13:13:28;;;;;;;;;;;;;;;;;;4964981;28;19929;-61
2023/09/22 13:15:54;;;;;;;;;;;;;;;;;;4967159;28;20009;-62
2023/09/22 13:18:19;;;;;;;;;;;;;;;;;;4932988;28;20937;-62
2023/09/22 13:20:48;;;;;;;;;;;;;;;;;;4952761;28;19921;-62
2023/09/22 13:23:19;;;;;;;;;;;;;;;;;;4948215;28;19922;-61
2023/09/22 13:25:46;;;;;;;;;;;;;;;;;;4950345;28;19968;-62
2023/09/22 13:28:16;;;;;;;;;;;;;;;;;;4951861;28;19925;-62
2023/09/22 13:30:52;;;;;;;;;;;;;;;;;;4967004;28;19921;-62
2023/09/22 13:33:17;;;;;;;;;;;;;;;;;;4960848;28;19979;-61
2023/09/22 13:35:42;;;;;;;;;;;;;;;;;;4949362;28;20416;-62
2023/09/22 13:38:11;;;;;;;;;;;;;;;;;;4945286;28;19953;-62
2023/09/22 13:40:36;;;;;;;;;;;;;;;;;;4965111;28;20100;-62
2023/09/22 13:43:01;;;;;;;;;;;;;;;;;;4966073;28;20536;-62
2023/09/22 13:45:27;;;;;;;;;;;;;;;;;;4942513;28;20108;-62
2023/09/22 13:47:55;;;;;;;;;;;;;;;;;;4966646;28;20033;-62
2023/09/22 13:50:21;;;;;;;;;;;;;;;;;;4929832;28;21949;-61
2023/09/22 13:52:46;;;;;;;;;;;;;;;;;;4951275;28;20111;-62
2023/09/22 13:55:15;;;;;;;;;;;;;;;;;;4928506;28;19922;-62
2023/09/22 13:57:43;;;;;;;;;;;;;;;;;;4931422;28;19969;-64
2023/09/22 14:00:11;;;;;;;;;;;;;;;;;;4952541;28;20280;-63
2023/09/22 14:02:39;;;;;;;;;;;;;;;;;;4935965;28;20381;-62
2023/09/22 14:05:07;;;;;;;;;;;;;;;;;;4932883;28;19933;-62
2023/09/22 14:07:37;;;;;;;;;;;;;;;;;;4944870;28;20864;-64
2023/09/22 14:10:02;;;;;;;;;;;;;;;;;;4969935;28;19991;-64
2023/09/22 14:12:27;;;;;;;;;;;;;;;;;;4949540;28;20416;-64
2023/09/22 14:14:55;;;;;;;;;;;;;;;;;;4973899;28;19922;-64
2023/09/22 14:17:23;;;;;;;;;;;;;;;;;;4934862;28;19918;-64
2023/09/22 14:19:51;;;;;;;;;;;;;;;;;;4968144;28;20851;-65
2023/09/22 14:22:17;;;;;;;;;;;;;;;;;;4951152;28;19926;-65
2023/09/22 14:24:43;;;;;;;;;;;;;;;;;;4933472;28;20458;-66
2023/09/22 14:27:08;;;;;;;;;;;;;;;;;;4967268;28;20260;-66
2023/09/22 14:29:34;;;;;;;;;;;;;;;;;;4940514;28;20193;-65
2023/09/22 14:32:02;;;;;;;;;;;;;;;;;;4966644;28;19918;-65
2023/09/22 14:34:32;;;;;;;;;;;;;;;;;;4965944;28;20405;-64
2023/09/22 14:36:57;;;;;;;;;;;;;;;;;;4972612;28;20352;-65
2023/09/22 14:39:23;;;;;;;;;;;;;;;;;;4942483;28;20017;-65
2023/09/22 14:41:49;;;;;;;;;;;;;;;;;;4940753;28;19926;-64
2023/09/22 14:44:14;;;;;;;;;;;;;;;;;;4946228;28;19937;-64
2023/09/22 14:46:39;;;;;;;;;;;;;;;;;;4930379;28;19922;-69
2023/09/22 14:49:07;;;;;;;;;;;;;;;;;;4968149;28;21030;-68
2023/09/22 14:51:36;;;;;;;;;;;;;;;;;;4969527;28;19917;-70
2023/09/22 14:54:03;;;;;;;;;;;;;;;;;;4950983;28;20874;-69
2023/09/22 14:56:34;;;;;;;;;;;;;;;;;;4964054;28;20057;-68
2023/09/22 14:58:59;;;;;;;;;;;;;;;;;;4962317;28;19921;-70
2023/09/22 15:01:26;;;;;;;;;;;;;;;;;;4930210;28;19932;-67
2023/09/22 15:03:51;;;;;;;;;;;;;;;;;;4968034;28;19918;-67
2023/09/22 15:06:19;;;;;;;;;;;;;;;;;;4935559;28;19922;-67
2023/09/22 15:08:47;;;;;;;;;;;;;;;;;;4950907;28;19922;-68
2023/09/22 15:11:14;;;;;;;;;;;;;;;;;;4966409;28;19980;-68
2023/09/22 15:13:40;;;;;;;;;;;;;;;;;;4931296;28;21625;-66
2023/09/22 15:16:10;;;;;;;;;;;;;;;;;;4946602;28;19998;-66
2023/09/22 15:18:39;;;;;;;;;;;;;;;;;;4944146;28;19918;-67
2023/09/22 15:21:08;;;;;;;;;;;;;;;;;;4948104;28;21489;-65
2023/09/22 15:23:33;;;;;;;;;;;;;;;;;;4947073;28;19972;-67
2023/09/22 15:26:03;;;;;;;;;;;;;;;;;;4969166;28;21540;-66
2023/09/22 15:28:28;;;;;;;;;;;;;;;;;;4973966;28;19918;-67
2023/09/22 15:30:56;;;;;;;;;;;;;;;;;;4953786;28;19949;-67
2023/09/22 15:33:21;;;;;;;;;;;;;;;;;;4971686;28;19922;-67
2023/09/22 15:35:49;;;;;;;;;;;;;;;;;;4946411;28;20044;-67
2023/09/22 15:38:14;;;;;;;;;;;;;;;;;;4970103;28;19991;-67
2023/09/22 15:40:42;;;;;;;;;;;;;;;;;;4948184;28;19922;-67
2023/09/22 15:43:10;;;;;;;;;;;;;;;;;;4944941;28;19933;-68
2023/09/22 15:45:38;;;;;;;;;;;;;;;;;;4951734;28;22134;-68
2023/09/22 15:48:05;;;;;;;;;;;;;;;;;;4969616;28;19922;-65
2023/09/22 15:50:32;;;;;;;;;;;;;;;;;;4951419;28;20377;-67
2023/09/22 15:53:00;;;;;;;;;;;;;;;;;;4949147;28;19918;-65
2023/09/22 15:55:26;;;;;;;;;;;;;;;;;;4949868;28;20147;-65
2023/09/22 15:57:51;;;;;;;;;;;;;;;;;;4950248;28;19944;-65
2023/09/22 16:00:18;;;;;;;;;;;;;;;;;;4967311;28;20529;-66
2023/09/22 16:02:43;;;;;;;;;;;;;;;;;;4952408;28;20432;-65
2023/09/22 16:05:08;;;;;;;;;;;;;;;;;;4952456;28;19936;-66
2023/09/22 16:07:39;;;;;;;;;;;;;;;;;;4953957;28;19922;-66
2023/09/22 16:10:07;;;;;;;;;;;;;;;;;;4950994;28;19922;-66
2023/09/22 16:12:32;;;;;;;;;;;;;;;;;;4967639;28;21938;-66
2023/09/22 16:15:00;;;;;;;;;;;;;;;;;;4948376;28;19922;-65
2023/09/22 16:17:27;;;;;;;;;;;;;;;;;;4950663;28;20867;-66
2023/09/22 16:19:57;;;;;;;;;;;;;;;;;;4949579;28;19929;-66
2023/09/22 16:22:22;;;;;;;;;;;;;;;;;;4969351;28;21776;-66
2023/09/22 16:24:47;;;;;;;;;;;;;;;;;;4933014;28;19925;-65
2023/09/22 16:27:13;;;;;;;;;;;;;;;;;;4966553;28;19933;-66
2023/09/22 16:29:41;;;;;;;;;;;;;;;;;;4950814;28;19961;-65
2023/09/22 16:32:09;;;;;;;;;;;;;;;;;;4950139;28;19940;-65
2023/09/22 16:34:39;;;;;;;;;;;;;;;;;;4951548;28;20917;-65
2023/09/22 16:37:04;;;;;;;;;;;;;;;;;;4935676;28;20276;-65
2023/09/22 16:39:30;;;;;;;;;;;;;;;;;;4966104;28;19917;-64
2023/09/22 16:41:55;;;;;;;;;;;;;;;;;;4965061;28;19932;-64
2023/09/22 16:44:20;;;;;;;;;;;;;;;;;;4964116;28;19991;-64
2023/09/22 16:46:48;;;;;;;;;;;;;;;;;;4951788;28;20029;-64
2023/09/22 16:49:16;;;;;;;;;;;;;;;;;;4949343;28;19922;-65